Time;durP1;ratioP1;P1;durP2;ratioP2;P2;SDS_P1;SDS_P2;PMS_P1;PMS_P2;Temp;Humidity;BMP_temperature;BMP_pressure;BME280_temperature;BME280_humidity;BME280_pressure;Samples;Min_cycle;Max_cycle;Signal;HPM_P1;HPM_P2
2022/12/13 00:01:15;;;;;;;57.97;26.52;;;-4.60;99.90;;;;;;5050981;28;20067;-42
2022/12/13 00:03:41;;;;;;;50.42;22.33;;;-4.60;99.90;;;;;;5051854;28;20111;-42
2022/12/13 00:06:08;;;;;;;57.22;23.92;;;-4.60;99.90;;;;;;5051718;28;20033;-42
2022/12/13 00:08:34;;;;;;;62.17;26.00;;;-4.70;99.90;;;;;;5051707;28;20029;-42
2022/12/13 00:11:01;;;;;;;50.13;21.58;;;-4.60;99.90;;;;;;5051131;28;20090;-42
2022/12/13 00:13:27;;;;;;;49.83;23.23;;;-4.70;99.90;;;;;;5051293;28;20032;-42
2022/12/13 00:16:02;;;;;;;61.28;23.73;;;-4.80;99.90;;;;;;5051293;28;20036;-44
2022/12/13 00:18:28;;;;;;;46.78;21.52;;;-4.70;99.90;;;;;;5051195;28;20337;-42
2022/12/13 00:20:54;;;;;;;53.15;23.55;;;-4.70;99.90;;;;;;5050636;28;20013;-43
2022/12/13 00:23:19;;;;;;;56.22;26.17;;;-4.80;99.90;;;;;;5051559;28;20068;-44
2022/12/13 00:25:45;;;;;;;57.38;23.35;;;-4.80;99.90;;;;;;5044043;28;20021;-42
2022/12/13 00:28:11;;;;;;;58.88;26.75;;;-4.70;99.90;;;;;;5036975;28;20033;-42
2022/12/13 00:30:38;;;;;;;64.68;26.23;;;-4.80;99.90;;;;;;5040004;28;20029;-41
2022/12/13 00:33:05;;;;;;;58.85;25.33;;;-4.90;99.90;;;;;;5035231;28;20030;-40
2022/12/13 00:35:32;;;;;;;52.78;22.73;;;-4.90;99.90;;;;;;5031574;28;20033;-48
2022/12/13 00:37:57;;;;;;;60.75;24.25;;;-4.90;99.90;;;;;;5031450;28;20021;-41
2022/12/13 00:40:26;;;;;;;49.63;22.30;;;-5.00;99.90;;;;;;5029636;28;20164;-40
2022/12/13 00:42:52;;;;;;;60.95;24.15;;;-4.90;99.90;;;;;;5031705;28;20018;-41
2022/12/13 00:45:17;;;;;;;57.63;24.65;;;-5.00;99.90;;;;;;5031214;28;20505;-41
2022/12/13 00:47:44;;;;;;;53.90;21.92;;;-5.00;99.90;;;;;;5031462;28;20111;-40
2022/12/13 00:50:10;;;;;;;57.13;23.00;;;-5.00;99.90;;;;;;5030449;28;20029;-40
2022/12/13 00:52:35;;;;;;;57.45;22.30;;;-5.10;99.90;;;;;;5031203;28;20033;-40
2022/12/13 00:55:01;;;;;;;55.78;25.55;;;-5.00;99.90;;;;;;5031087;28;20485;-41
2022/12/13 00:57:27;;;;;;;58.55;24.63;;;-5.10;99.90;;;;;;5031113;28;20352;-41
2022/12/13 00:59:52;;;;;;;50.20;23.48;;;-5.10;99.90;;;;;;5030414;28;20071;-41
2022/12/13 01:02:18;;;;;;;56.55;24.17;;;-5.00;99.90;;;;;;5030400;28;20021;-41
2022/12/13 01:04:43;;;;;;;57.90;24.70;;;-5.10;99.90;;;;;;5030872;28;20268;-41
2022/12/13 01:07:09;;;;;;;56.00;23.48;;;-5.10;99.90;;;;;;5030621;28;20486;-41
2022/12/13 01:09:36;;;;;;;55.88;22.88;;;-5.10;99.90;;;;;;5030374;28;20025;-42
2022/12/13 01:12:05;;;;;;;64.95;24.50;;;-5.10;99.90;;;;;;5030923;28;20453;-40
2022/12/13 01:14:34;;;;;;;66.97;25.27;;;-5.10;99.90;;;;;;5031213;28;20017;-41
2022/12/13 01:17:00;;;;;;;58.13;24.48;;;-5.10;99.90;;;;;;5030417;28;20384;-44
2022/12/13 01:19:27;;;;;;;59.15;24.20;;;-5.10;99.90;;;;;;5030161;28;20101;-41
2022/12/13 01:21:58;;;;;;;59.58;25.05;;;-5.10;99.90;;;;;;5030746;28;20017;-41
2022/12/13 01:24:24;;;;;;;54.35;23.58;;;-5.20;99.90;;;;;;5031022;28;20104;-41
2022/12/13 01:26:52;;;;;;;62.83;25.30;;;-5.20;99.90;;;;;;5030491;28;20458;-41
2022/12/13 01:29:19;;;;;;;53.50;25.23;;;-5.20;99.90;;;;;;5030242;28;20021;-41
2022/12/13 01:31:45;;;;;;;54.42;23.35;;;-5.20;99.90;;;;;;5033955;28;20033;-42
2022/12/13 01:34:12;;;;;;;55.92;24.42;;;-5.30;99.90;;;;;;5049999;28;20021;-42
2022/12/13 01:36:40;;;;;;;59.38;23.58;;;-5.30;99.90;;;;;;5050095;28;20028;-41
2022/12/13 01:39:08;;;;;;;52.30;24.00;;;-5.30;99.90;;;;;;5050212;28;20049;-42
2022/12/13 01:41:34;;;;;;;51.25;22.75;;;-5.40;99.90;;;;;;5050863;28;20028;-41
2022/12/13 01:44:02;;;;;;;51.35;22.48;;;-5.30;99.90;;;;;;5050255;28;20033;-42
2022/12/13 01:46:30;;;;;;;54.42;24.48;;;-5.40;99.90;;;;;;5050058;28;20530;-43
2022/12/13 01:49:04;;;;;;;54.65;24.10;;;-5.40;99.90;;;;;;5050039;28;20025;-42
2022/12/13 01:51:42;;;;;;;58.42;23.83;;;-5.40;99.90;;;;;;5049653;28;20021;-42
2022/12/13 01:54:13;;;;;;;68.22;26.10;;;-5.40;99.90;;;;;;5049951;28;20029;-42
2022/12/13 01:56:50;;;;;;;55.45;22.98;;;-5.40;99.90;;;;;;5049639;28;20096;-42
2022/12/13 01:59:18;;;;;;;49.33;21.80;;;-5.40;99.90;;;;;;5049397;28;20029;-42
2022/12/13 02:01:44;;;;;;;52.58;22.60;;;-5.40;99.90;;;;;;5049572;28;20032;-42
2022/12/13 02:04:11;;;;;;;62.92;25.05;;;-5.40;99.90;;;;;;5049667;28;20031;-41
2022/12/13 02:06:41;;;;;;;49.15;22.23;;;-5.40;99.90;;;;;;5049954;28;20041;-44
2022/12/13 02:09:07;;;;;;;;;;;-5.40;99.90;;;;;;5050174;28;20108;-41
2022/12/13 02:11:35;;;;;;;51.92;21.25;;;-5.50;99.90;;;;;;5049857;28;19988;-41
2022/12/13 02:14:01;;;;;;;54.00;22.10;;;-5.50;99.90;;;;;;5049745;28;20047;-41
2022/12/13 02:16:43;;;;;;;55.78;21.63;;;-5.50;99.90;;;;;;5049991;28;20478;-41
2022/12/13 02:19:09;;;;;;;50.67;21.63;;;-5.60;99.90;;;;;;5048439;28;20025;-41
2022/12/13 02:22:07;;;;;;;50.92;22.23;;;-5.60;99.90;;;;;;5048159;28;20382;-41
2022/12/13 02:24:44;;;;;;;62.22;22.52;;;-5.50;99.90;;;;;;5044392;28;20489;-41
2022/12/13 02:27:14;;;;;;;53.10;21.40;;;-5.60;99.90;;;;;;5049344;28;20105;-40
2022/12/13 02:30:15;;;;;;;42.00;17.65;;;-5.70;99.90;;;;;;5048845;28;20109;-41
2022/12/13 02:32:56;;;;;;;57.72;23.10;;;-5.70;99.90;;;;;;5049481;28;20529;-40
2022/12/13 02:35:29;;;;;;;55.70;22.45;;;-5.70;99.90;;;;;;5048980;28;20028;-41
2022/12/13 02:38:17;;;;;;;54.35;22.58;;;-5.70;99.90;;;;;;5049224;28;20021;-41
2022/12/13 02:40:50;;;;;;;55.83;22.98;;;-5.70;99.90;;;;;;5048509;28;20099;-40
2022/12/13 02:43:21;;;;;;;45.55;20.27;;;-5.70;99.90;;;;;;5049316;28;20554;-41
2022/12/13 02:45:57;;;;;;;54.05;24.83;;;-5.80;99.90;;;;;;5049552;28;20024;-41
2022/12/13 02:48:35;;;;;;;55.92;22.17;;;-5.80;99.90;;;;;;5048976;28;20029;-41
2022/12/13 02:51:03;;;;;;;46.78;21.50;;;-5.70;99.90;;;;;;5047059;28;20454;-41
2022/12/13 02:53:30;;;;;;;46.42;20.35;;;-5.70;99.90;;;;;;5049345;28;20055;-41
2022/12/13 02:55:55;;;;;;;50.22;20.95;;;-5.80;99.90;;;;;;5048890;28;20047;-41
2022/12/13 02:58:26;;;;;;;50.45;20.33;;;-5.80;99.90;;;;;;5048799;28;20111;-42
2022/12/13 03:00:52;;;;;;;50.78;21.20;;;-5.90;99.90;;;;;;5048191;28;20017;-42
2022/12/13 03:03:33;;;;;;;52.25;22.38;;;-5.80;99.90;;;;;;5048698;28;20083;-42
2022/12/13 03:06:28;;;;;;;48.88;21.02;;;-5.80;99.90;;;;;;5048653;28;20389;-41
2022/12/13 03:09:06;;;;;;;48.80;22.15;;;-5.90;99.90;;;;;;5046119;28;20045;-42
2022/12/13 03:14:49;;;;;;;47.30;21.95;;;-5.90;99.90;;;;;;5048710;28;20135;-41
2022/12/13 03:17:19;;;;;;;46.35;21.30;;;-5.90;99.90;;;;;;5048692;28;20028;-41
2022/12/13 03:19:44;;;;;;;48.70;20.77;;;-5.90;99.90;;;;;;5045655;28;20021;-42
2022/12/13 03:22:13;;;;;;;44.20;20.10;;;-5.90;99.90;;;;;;5048472;28;20300;-41
2022/12/13 03:24:39;;;;;;;46.75;20.67;;;-6.00;99.90;;;;;;5048469;28;20017;-41
2022/12/13 03:27:05;;;;;;;51.50;20.92;;;-6.00;99.90;;;;;;5048554;28;20120;-41
2022/12/13 03:29:31;;;;;;;47.67;19.98;;;-5.90;99.90;;;;;;5047558;28;20040;-41
2022/12/13 03:31:57;;;;;;;41.10;18.50;;;-6.00;99.90;;;;;;5052398;28;20025;-41
2022/12/13 03:34:22;;;;;;;49.80;20.52;;;-6.00;99.90;;;;;;5052416;28;20479;-41
2022/12/13 03:36:48;;;;;;;46.95;20.20;;;-6.00;99.90;;;;;;5053005;28;20045;-40
2022/12/13 03:39:13;;;;;;;49.75;20.85;;;-6.00;99.90;;;;;;5052386;28;20474;-40
2022/12/13 03:41:39;;;;;;;47.75;20.25;;;-6.00;99.90;;;;;;5052750;28;20029;-41
2022/12/13 03:44:08;;;;;;;44.13;20.25;;;-5.90;99.90;;;;;;5052532;28;20263;-41
2022/12/13 03:46:35;;;;;;;46.95;22.52;;;-5.90;99.90;;;;;;5050889;28;20025;-41
2022/12/13 03:49:07;;;;;;;48.58;19.77;;;-5.90;99.90;;;;;;5052310;28;20028;-41
2022/12/13 03:51:33;;;;;;;46.92;19.85;;;-5.90;99.90;;;;;;5052147;28;20099;-40
2022/12/13 03:54:01;;;;;;;46.05;18.67;;;-5.90;99.90;;;;;;5052186;28;20495;-45
2022/12/13 03:56:29;;;;;;;39.17;17.70;;;-5.90;99.90;;;;;;5051860;28;20500;-41
2022/12/13 03:58:58;;;;;;;50.38;21.27;;;-6.00;99.90;;;;;;5051827;28;20033;-41
2022/12/13 04:01:24;;;;;;;42.78;18.42;;;-6.00;99.90;;;;;;5050379;28;20032;-40
2022/12/13 04:03:50;;;;;;;58.42;24.02;;;-6.20;99.90;;;;;;5052209;28;20025;-41
2022/12/13 04:06:16;;;;;;;47.72;19.67;;;-6.10;99.90;;;;;;5052084;28;20123;-41
2022/12/13 04:08:41;;;;;;;50.60;20.83;;;-6.20;99.90;;;;;;5051964;28;20050;-41
2022/12/13 04:13:53;;;;;;;45.13;19.60;;;-6.20;99.90;;;;;;5052119;28;20398;-40
2022/12/13 04:16:19;;;;;;;48.90;18.92;;;-6.20;99.90;;;;;;5051640;28;20405;-41
2022/12/13 04:18:45;;;;;;;44.80;19.83;;;-6.10;99.90;;;;;;5051731;28;20021;-41
2022/12/13 04:21:11;;;;;;;45.25;18.73;;;-6.00;99.90;;;;;;5049954;28;20029;-40
2022/12/13 04:23:36;;;;;;;40.78;20.40;;;-6.00;99.90;;;;;;5052099;28;20017;-40
2022/12/13 04:26:02;;;;;;;49.65;20.00;;;-6.00;99.90;;;;;;5051366;28;20309;-41
2022/12/13 04:28:27;;;;;;;45.95;18.60;;;-5.90;99.90;;;;;;5051402;28;20074;-40
2022/12/13 04:30:53;;;;;;;44.78;18.77;;;-5.90;99.90;;;;;;5050889;28;20086;-40
2022/12/13 04:33:20;;;;;;;45.78;18.45;;;-5.90;99.90;;;;;;5050065;28;20067;-40
2022/12/13 04:35:46;;;;;;;38.55;18.33;;;-5.90;99.90;;;;;;5051473;28;20024;-40
2022/12/13 04:38:12;;;;;;;42.00;17.83;;;-5.90;99.90;;;;;;5051273;28;20110;-40
2022/12/13 04:40:38;;;;;;;48.65;19.05;;;-6.00;99.90;;;;;;5050998;28;20045;-41
2022/12/13 04:43:03;;;;;;;50.30;18.13;;;-6.00;99.90;;;;;;5049594;28;20501;-41
2022/12/13 04:45:29;;;;;;;42.58;18.60;;;-6.00;99.90;;;;;;5051751;28;20029;-41
2022/12/13 04:47:55;;;;;;;40.22;18.67;;;-6.00;99.90;;;;;;5051359;28;20035;-41
2022/12/13 04:50:21;;;;;;;46.25;19.90;;;-6.00;99.90;;;;;;5050897;28;20025;-41
2022/12/13 04:52:47;;;;;;;46.05;16.92;;;-6.00;99.90;;;;;;5051465;28;20494;-41
2022/12/13 04:55:12;;;;;;;46.50;18.42;;;-6.10;99.90;;;;;;5051013;28;20029;-42
2022/12/13 04:57:38;;;;;;;40.90;17.42;;;-6.10;99.90;;;;;;5050851;28;20029;-41
2022/12/13 05:00:07;;;;;;;47.65;18.88;;;-6.10;99.90;;;;;;5050394;28;20021;-40
2022/12/13 05:02:33;;;;;;;45.55;19.02;;;-6.10;99.90;;;;;;5051312;28;20088;-41
2022/12/13 05:05:01;;;;;;;42.28;18.52;;;-6.10;99.90;;;;;;5050794;28;20112;-41
2022/12/13 05:07:27;;;;;;;42.03;17.45;;;-6.10;99.90;;;;;;5050803;28;20032;-40
2022/12/13 05:09:53;;;;;;;42.35;18.10;;;-6.10;99.90;;;;;;5050206;28;20414;-41
2022/12/13 05:12:19;;;;;;;39.67;19.10;;;-6.10;99.90;;;;;;5050766;28;20457;-41
2022/12/13 05:14:48;;;;;;;45.13;18.27;;;-6.10;99.90;;;;;;5050450;28;20474;-41
2022/12/13 05:17:13;;;;;;;37.85;17.02;;;-6.20;99.90;;;;;;5050429;28;20070;-41
2022/12/13 05:19:39;;;;;;;42.35;16.88;;;-6.10;99.90;;;;;;5050172;28;20021;-41
2022/12/13 05:22:05;;;;;;;44.45;19.48;;;-6.10;99.90;;;;;;5050398;28;20021;-41
2022/12/13 05:24:30;;;;;;;49.08;19.48;;;-6.20;99.90;;;;;;5050464;28;20052;-41
2022/12/13 05:26:56;;;;;;;43.97;19.33;;;-6.20;99.90;;;;;;5049271;28;20029;-40
2022/12/13 05:29:22;;;;;;;41.70;17.40;;;-6.20;99.90;;;;;;5050163;28;20021;-40
2022/12/13 05:31:48;;;;;;;39.08;17.25;;;-6.10;99.90;;;;;;5050465;28;20470;-41
2022/12/13 05:34:14;;;;;;;47.22;18.52;;;-6.10;99.90;;;;;;5050618;28;20017;-41
2022/12/13 05:36:39;;;;;;;44.08;18.17;;;-6.20;99.90;;;;;;5050624;28;20020;-40
2022/12/13 05:39:05;;;;;;;48.75;19.75;;;-6.20;99.90;;;;;;5050418;28;20154;-44
2022/12/13 05:41:34;;;;;;;44.22;18.38;;;-6.20;99.90;;;;;;5050277;28;20074;-41
2022/12/13 05:44:00;;;;;;;51.53;21.52;;;-6.20;99.90;;;;;;5050848;28;20111;-42
2022/12/13 05:46:25;;;;;;;42.95;18.60;;;-6.30;99.90;;;;;;5041350;28;20151;-41
2022/12/13 05:48:51;;;;;;;43.95;19.27;;;-6.30;99.90;;;;;;5046220;28;20398;-41
2022/12/13 05:51:17;;;;;;;43.35;18.98;;;-6.30;99.90;;;;;;5049713;28;20032;-41
2022/12/13 05:53:42;;;;;;;51.17;21.90;;;-6.20;99.90;;;;;;5047895;28;20028;-41
2022/12/13 05:56:09;;;;;;;44.67;19.88;;;-6.20;99.90;;;;;;5049820;28;20044;-44
2022/12/13 05:58:37;;;;;;;42.60;18.25;;;-6.20;99.90;;;;;;5048436;28;20051;-41
2022/12/13 06:01:07;;;;;;;46.17;18.92;;;-6.20;99.90;;;;;;5049117;28;20510;-41
2022/12/13 06:03:33;;;;;;;43.22;18.58;;;-6.20;99.90;;;;;;5049622;28;20020;-42
2022/12/13 06:06:02;;;;;;;39.65;18.25;;;-6.30;99.90;;;;;;5049228;28;20036;-42
2022/12/13 06:08:29;;;;;;;42.80;17.88;;;-6.30;99.90;;;;;;5049935;28;20036;-43
2022/12/13 06:10:57;;;;;;;42.15;16.60;;;-6.30;99.90;;;;;;5049040;28;20028;-44
2022/12/13 06:13:23;;;;;;;44.33;18.48;;;-6.30;99.90;;;;;;5049523;28;20100;-42
2022/12/13 06:15:49;;;;;;;45.33;18.42;;;-6.20;99.90;;;;;;5049402;28;20021;-43
2022/12/13 06:18:14;;;;;;;46.10;18.23;;;-6.30;99.90;;;;;;5040640;28;20026;-43
2022/12/13 06:20:40;;;;;;;42.97;19.73;;;-6.30;99.90;;;;;;5048873;28;20074;-43
2022/12/13 06:23:05;;;;;;;48.45;21.08;;;-6.20;99.90;;;;;;5048936;28;20021;-43
2022/12/13 06:25:31;;;;;;;41.90;18.60;;;-6.30;99.90;;;;;;5049053;28;20025;-42
2022/12/13 06:27:56;;;;;;;42.53;18.75;;;-6.30;99.90;;;;;;5047586;28;20036;-45
2022/12/13 06:30:22;;;;;;;42.95;18.20;;;-6.30;99.90;;;;;;5043448;28;20253;-46
2022/12/13 06:32:48;;;;;;;47.67;19.73;;;-6.30;99.90;;;;;;5048200;28;20104;-44
2022/12/13 06:35:15;;;;;;;46.67;18.50;;;-6.30;99.90;;;;;;5049029;28;20021;-44
2022/12/13 06:37:40;;;;;;;43.47;18.17;;;-6.40;99.90;;;;;;5049517;28;20071;-44
2022/12/13 06:40:06;;;;;;;39.15;17.20;;;-6.40;99.90;;;;;;5047935;28;20529;-44
2022/12/13 06:42:32;;;;;;;46.17;19.08;;;-6.40;99.90;;;;;;5038554;28;20017;-43
2022/12/13 06:44:58;;;;;;;40.40;17.48;;;-6.30;99.90;;;;;;5046146;28;20028;-44
2022/12/13 06:47:26;;;;;;;46.63;19.00;;;-6.30;99.90;;;;;;5044547;28;20086;-43
2022/12/13 06:49:52;;;;;;;41.58;17.30;;;-6.40;99.90;;;;;;5045480;28;20429;-45
2022/12/13 06:52:17;;;;;;;49.50;20.88;;;-6.30;99.90;;;;;;5044438;28;20105;-44
2022/12/13 06:54:43;;;;;;;46.22;20.05;;;-6.30;99.90;;;;;;5048122;28;20083;-44
2022/12/13 06:57:12;;;;;;;39.13;17.95;;;-6.40;99.90;;;;;;5049774;28;20029;-43
2022/12/13 06:59:38;;;;;;;46.92;17.95;;;-6.40;99.90;;;;;;5049062;28;20501;-43
2022/12/13 07:02:03;;;;;;;38.97;16.45;;;-6.40;99.90;;;;;;5048802;28;20021;-44
2022/12/13 07:04:29;;;;;;;47.30;19.38;;;-6.40;99.90;;;;;;5045359;28;20190;-43
2022/12/13 07:06:55;;;;;;;42.55;17.73;;;-6.40;99.90;;;;;;5046514;28;20017;-43
2022/12/13 07:09:20;;;;;;;42.17;17.10;;;-6.40;99.90;;;;;;5048899;28;20017;-45
2022/12/13 07:11:46;;;;;;;44.30;17.88;;;-6.40;99.90;;;;;;5049234;28;20100;-44
2022/12/13 07:14:12;;;;;;;42.33;19.45;;;-6.40;99.90;;;;;;5048836;28;20449;-44
2022/12/13 07:16:37;;;;;;;39.78;16.38;;;-6.30;99.90;;;;;;5049681;28;20048;-44
2022/12/13 07:19:04;;;;;;;44.03;18.65;;;-6.30;99.90;;;;;;5048645;28;20029;-45
2022/12/13 07:21:30;;;;;;;41.88;18.20;;;-6.30;99.90;;;;;;5048526;28;20104;-43
2022/12/13 07:23:56;;;;;;;43.80;17.85;;;-6.30;99.90;;;;;;5049985;28;20029;-47
2022/12/13 07:26:22;;;;;;;40.88;17.15;;;-6.20;99.90;;;;;;5049880;28;20482;-44
2022/12/13 07:28:47;;;;;;;45.10;18.92;;;-6.30;99.90;;;;;;5047714;28;20107;-45
2022/12/13 07:31:13;;;;;;;43.72;18.40;;;-6.30;99.90;;;;;;5044658;28;20036;-43
2022/12/13 07:33:39;;;;;;;46.78;18.67;;;-6.20;99.90;;;;;;5048914;28;20056;-43
2022/12/13 07:36:08;;;;;;;42.00;18.73;;;-6.30;99.90;;;;;;5049764;28;20056;-44
2022/12/13 07:38:34;;;;;;;47.08;19.52;;;-6.30;99.90;;;;;;5050029;28;20033;-43
2022/12/13 07:41:00;;;;;;;44.25;19.67;;;-6.30;99.90;;;;;;5047270;28;20032;-44
2022/12/13 07:43:26;;;;;;;47.00;21.83;;;-6.30;99.90;;;;;;5049440;28;20466;-43
2022/12/13 07:45:52;;;;;;;51.38;21.20;;;-6.30;99.90;;;;;;5049363;28;20025;-46
2022/12/13 07:48:18;;;;;;;48.55;22.70;;;-6.30;99.90;;;;;;5049266;28;20438;-43
2022/12/13 07:50:44;;;;;;;42.17;19.40;;;-6.30;99.90;;;;;;5048673;28;20099;-44
2022/12/13 07:53:10;;;;;;;52.92;20.27;;;-6.30;99.90;;;;;;5048520;28;20474;-43
2022/12/13 07:55:37;;;;;;;51.10;24.02;;;-6.20;99.90;;;;;;5049194;28;20035;-44
2022/12/13 07:58:10;;;;;;;47.97;20.33;;;-6.20;99.90;;;;;;5048995;28;20021;-42
2022/12/13 08:00:41;;;;;;;54.95;20.67;;;-6.20;99.90;;;;;;5048663;28;20029;-43
2022/12/13 08:03:07;;;;;;;49.75;20.73;;;-6.10;99.90;;;;;;5049205;28;20390;-44
2022/12/13 08:05:33;;;;;;;49.58;20.63;;;-6.10;99.90;;;;;;5049180;28;20025;-43
2022/12/13 08:07:59;;;;;;;45.30;20.75;;;-6.00;99.90;;;;;;5049128;28;20125;-43
2022/12/13 08:10:25;;;;;;;40.22;18.42;;;-5.90;99.90;;;;;;5048062;28;20030;-44
2022/12/13 08:12:50;;;;;;;49.97;21.17;;;-5.90;99.90;;;;;;5048780;28;20048;-44
2022/12/13 08:15:16;;;;;;;39.30;17.83;;;-5.80;99.90;;;;;;5047155;28;20100;-44
2022/12/13 08:17:42;;;;;;;43.58;17.67;;;-5.80;99.90;;;;;;5051021;28;20078;-44
2022/12/13 08:20:08;;;;;;;51.90;21.20;;;-5.80;99.90;;;;;;5051475;28;20421;-43
2022/12/13 08:22:33;;;;;;;43.15;19.33;;;-5.80;99.90;;;;;;5052342;28;20017;-50
2022/12/13 08:24:59;;;;;;;40.45;18.08;;;-5.70;99.90;;;;;;5052465;28;20379;-44
2022/12/13 08:27:25;;;;;;;37.00;17.35;;;-5.70;99.90;;;;;;5052092;28;20114;-43
2022/12/13 08:29:50;;;;;;;37.72;17.52;;;-5.60;99.90;;;;;;5050977;28;20382;-44
2022/12/13 08:32:15;;;;;;;35.45;16.35;;;-5.60;99.90;;;;;;5051646;28;20680;-44
2022/12/13 08:34:42;;;;;;;40.10;19.10;;;-5.50;99.90;;;;;;5051059;28;20025;-43
2022/12/13 08:37:07;;;;;;;41.47;17.90;;;-5.50;99.90;;;;;;5050831;28;20830;-43
2022/12/13 08:39:35;;;;;;;38.97;17.55;;;-5.40;99.90;;;;;;5048429;28;20051;-44
2022/12/13 08:42:12;;;;;;;41.97;17.35;;;-5.30;99.90;;;;;;5049174;28;20052;-44
2022/12/13 08:44:38;;;;;;;44.65;18.35;;;-5.20;99.90;;;;;;5051310;28;20338;-44
2022/12/13 08:47:03;;;;;;;41.88;20.15;;;-5.10;99.90;;;;;;5051300;28;20021;-44
2022/12/13 08:49:29;;;;;;;43.83;21.02;;;-5.00;99.90;;;;;;5050527;28;20040;-44
2022/12/13 08:51:54;;;;;;;43.88;20.80;;;-5.00;99.90;;;;;;5051031;28;20020;-44
2022/12/13 08:54:20;;;;;;;44.42;18.77;;;-4.90;99.90;;;;;;5050983;28;20053;-43
2022/12/13 08:56:45;;;;;;;46.28;19.70;;;-5.20;99.90;;;;;;5040494;28;20670;-44
2022/12/13 08:59:11;;;;;;;41.47;17.70;;;-5.30;99.90;;;;;;5030637;28;20068;-43
2022/12/13 09:01:36;;;;;;;40.28;17.65;;;-5.10;99.90;;;;;;5049778;28;20025;-44
2022/12/13 09:04:02;;;;;;;42.13;19.02;;;-5.00;99.90;;;;;;5048856;28;20021;-43
2022/12/13 09:06:27;;;;;;;40.80;19.40;;;-4.90;99.90;;;;;;5050037;28;20108;-46
2022/12/13 09:08:53;;;;;;;46.80;21.45;;;-4.90;99.90;;;;;;5050214;28;20033;-44
2022/12/13 09:11:19;;;;;;;42.47;18.05;;;-4.80;99.90;;;;;;5050357;28;20418;-48
2022/12/13 09:13:45;;;;;;;37.83;17.70;;;-4.80;99.90;;;;;;5050630;28;20025;-44
2022/12/13 09:16:14;;;;;;;42.58;19.17;;;-4.70;99.90;;;;;;5050414;28;20143;-43
2022/12/13 09:18:40;;;;;;;45.50;18.83;;;-4.60;99.90;;;;;;5050264;28;20029;-46
2022/12/13 09:21:11;;;;;;;38.72;18.50;;;-4.60;99.90;;;;;;5049138;28;20079;-43
2022/12/13 09:23:37;;;;;;;31.42;15.95;;;-4.50;99.90;;;;;;5048653;28;20021;-44
2022/12/13 09:26:02;;;;;;;41.60;17.27;;;-4.50;99.90;;;;;;5048953;28;20029;-43
2022/12/13 09:28:28;;;;;;;34.47;16.08;;;-4.40;99.90;;;;;;5048571;28;20037;-43
2022/12/13 09:30:55;;;;;;;31.77;16.38;;;-4.30;99.90;;;;;;5048591;28;20031;-44
2022/12/13 09:33:21;;;;;;;37.42;16.15;;;-4.20;99.90;;;;;;5049361;28;20025;-43
2022/12/13 09:35:46;;;;;;;37.05;16.25;;;-4.20;99.90;;;;;;5049187;28;20036;-44
2022/12/13 09:38:12;;;;;;;38.85;16.63;;;-4.20;99.90;;;;;;5048730;28;20033;-43
2022/12/13 09:40:39;;;;;;;36.25;18.13;;;-4.10;99.90;;;;;;5047934;28;20032;-42
2022/12/13 09:43:06;;;;;;;34.78;17.10;;;-4.00;99.90;;;;;;5048817;28;20083;-44
2022/12/13 09:45:33;;;;;;;34.00;16.05;;;-3.90;99.90;;;;;;5048388;28;20017;-43
2022/12/13 09:48:00;;;;;;;34.25;16.02;;;-3.80;99.90;;;;;;5048738;28;20482;-43
2022/12/13 09:50:31;;;;;;;32.35;14.65;;;-3.70;99.90;;;;;;5048592;28;20024;-45
2022/12/13 09:52:57;;;;;;;32.03;14.30;;;-3.60;99.90;;;;;;5046393;28;20281;-44
2022/12/13 09:55:30;;;;;;;34.72;15.85;;;-3.50;99.90;;;;;;5048317;28;20027;-44
2022/12/13 09:57:57;;;;;;;34.22;15.32;;;-3.40;99.90;;;;;;5047410;28;20527;-46
2022/12/13 10:00:27;;;;;;;31.58;14.88;;;-3.20;99.90;;;;;;5047877;28;20035;-44
2022/12/13 10:02:59;;;;;;;36.05;16.38;;;-3.10;99.90;;;;;;5048422;28;20055;-44
2022/12/13 10:05:36;;;;;;;34.55;15.98;;;-3.10;99.90;;;;;;5047363;28;20490;-45
2022/12/13 10:08:11;;;;;;;35.28;16.63;;;-2.90;99.90;;;;;;5048173;28;20029;-43
2022/12/13 10:10:37;;;;;;;31.73;15.55;;;-2.80;99.90;;;;;;5048117;28;20029;-43
2022/12/13 10:13:25;;;;;;;33.05;16.27;;;-2.70;99.90;;;;;;5047676;28;20078;-42
2022/12/13 10:15:59;;;;;;;32.15;15.43;;;-2.60;99.90;;;;;;5047410;28;20525;-46
2022/12/13 10:18:42;;;;;;;29.23;14.45;;;-2.50;99.90;;;;;;5048362;28;20033;-45
2022/12/13 10:21:13;;;;;;;31.75;14.68;;;-2.50;99.90;;;;;;5047880;28;20444;-43
2022/12/13 10:23:38;;;;;;;;;;;-2.30;99.90;;;;;;5047445;28;20025;-44
2022/12/13 10:26:11;;;;;;;28.88;14.88;;;-2.20;99.90;;;;;;5046830;28;19915;-44
2022/12/13 10:28:38;;;;;;;32.97;14.82;;;-2.20;99.90;;;;;;5047816;28;20029;-45
2022/12/13 10:31:05;;;;;;;30.30;14.95;;;-2.10;99.90;;;;;;5047527;28;20028;-44
2022/12/13 10:33:34;;;;;;;28.33;14.60;;;-2.00;99.90;;;;;;5047288;28;20532;-46
2022/12/13 10:36:05;;;;;;;31.83;15.73;;;-1.80;99.90;;;;;;5048095;28;20033;-44
2022/12/13 10:38:37;;;;;;;27.27;12.93;;;-1.50;99.90;;;;;;5047449;28;20029;-47
2022/12/13 10:41:28;;;;;;;25.20;13.73;;;-0.50;99.90;;;;;;5046861;28;20031;-43
2022/12/13 10:44:18;;;;;;;25.25;13.10;;;1.50;99.90;;;;;;5047306;28;20032;-44
2022/12/13 10:47:13;;;;;;;22.63;12.35;;;3.10;99.90;;;;;;5048063;28;20021;-46
2022/12/13 10:49:51;;;;;;;18.13;11.55;;;5.00;99.90;;;;;;5047161;28;20021;-45
2022/12/13 10:52:25;;;;;;;16.63;11.82;;;6.60;98.80;;;;;;5047372;28;20036;-45
2022/12/13 10:54:51;;;;;;;18.38;11.63;;;7.80;93.60;;;;;;5046136;28;20067;-45
2022/12/13 10:57:18;;;;;;;16.17;10.27;;;8.30;90.60;;;;;;5047452;28;20036;-47
2022/12/13 10:59:47;;;;;;;17.13;11.82;;;8.90;88.10;;;;;;5046955;28;20699;-45
2022/12/13 11:02:29;;;;;;;17.80;11.73;;;9.20;83.20;;;;;;5046919;28;20075;-43
2022/12/13 11:04:56;;;;;;;17.70;11.18;;;9.60;79.50;;;;;;5047177;28;20433;-43
2022/12/13 11:07:23;;;;;;;16.65;11.57;;;9.70;75.20;;;;;;5047404;28;20028;-44
2022/12/13 11:09:49;;;;;;;14.88;10.40;;;9.30;72.10;;;;;;5046657;28;20120;-45
2022/12/13 11:12:19;;;;;;;16.73;11.63;;;8.40;75.30;;;;;;5047297;28;20108;-43
2022/12/13 11:14:56;;;;;;;14.77;9.85;;;7.00;77.20;;;;;;5047093;28;20033;-44
2022/12/13 11:17:26;;;;;;;16.58;10.73;;;5.80;80.90;;;;;;5046288;28;20337;-43
2022/12/13 11:19:59;;;;;;;19.60;12.25;;;4.80;84.10;;;;;;5047011;28;20389;-43
2022/12/13 11:22:29;;;;;;;22.35;13.55;;;3.90;90.30;;;;;;5047246;28;20044;-43
2022/12/13 11:25:01;;;;;;;19.50;11.85;;;3.00;90.90;;;;;;5046740;28;20075;-43
2022/12/13 11:27:48;;;;;;;21.50;12.40;;;2.40;92.50;;;;;;5047976;28;20175;-42
2022/12/13 11:30:18;;;;;;;19.92;11.98;;;2.10;94.60;;;;;;5047942;28;20036;-44
2022/12/13 11:32:43;;;;;;;21.70;12.33;;;2.00;94.40;;;;;;5048673;28;20025;-43
2022/12/13 11:35:44;;;;;;;20.80;11.48;;;1.60;97.00;;;;;;5048626;28;20352;-44
2022/12/13 11:38:15;;;;;;;20.08;11.57;;;1.30;97.60;;;;;;5045288;28;20033;-43
2022/12/13 11:40:45;;;;;;;19.77;11.25;;;1.00;97.30;;;;;;5037155;28;20030;-44
2022/12/13 11:43:22;;;;;;;23.45;12.25;;;0.80;98.20;;;;;;5028807;28;20056;-43
2022/12/13 11:45:56;;;;;;;18.02;10.65;;;0.70;99.00;;;;;;5028674;28;20053;-43
2022/12/13 11:48:30;;;;;;;17.58;10.55;;;0.60;99.90;;;;;;5028720;28;20029;-43
2022/12/13 11:50:58;;;;;;;21.55;12.05;;;0.60;99.90;;;;;;5049497;28;20032;-43
2022/12/13 11:53:45;;;;;;;19.85;11.05;;;0.50;99.90;;;;;;5053323;28;20035;-51
2022/12/13 11:56:34;;;;;;;22.27;11.18;;;0.40;99.90;;;;;;5053563;28;20032;-45
2022/12/13 11:59:08;;;;;;;23.80;12.63;;;0.10;99.90;;;;;;5053059;28;20033;-43
2022/12/13 12:02:00;;;;;;;21.38;11.98;;;0.10;99.90;;;;;;5053238;28;20119;-45
2022/12/13 12:04:35;;;;;;;25.80;11.23;;;0.10;99.90;;;;;;5052650;28;20037;-44
2022/12/13 12:07:11;;;;;;;20.02;10.15;;;0.10;99.90;;;;;;5053329;28;20094;-44
2022/12/13 12:09:41;;;;;;;21.30;10.60;;;0.00;99.90;;;;;;5052508;28;20020;-45
2022/12/13 12:12:34;;;;;;;23.38;11.15;;;-0.10;99.90;;;;;;5053217;28;20405;-44
2022/12/13 12:15:25;;;;;;;25.08;12.13;;;0.00;99.90;;;;;;5053274;28;20110;-45
2022/12/13 12:17:50;;;;;;;21.13;10.93;;;-0.10;99.90;;;;;;5053248;28;20018;-44
2022/12/13 12:20:37;;;;;;;21.58;11.40;;;0.00;99.90;;;;;;5052559;28;20462;-46
2022/12/13 12:23:21;;;;;;;20.60;11.23;;;-0.10;99.90;;;;;;5052857;28;20033;-46
2022/12/13 12:25:56;;;;;;;24.67;12.35;;;-0.10;99.90;;;;;;5052802;28;20056;-45
2022/12/13 12:28:34;;;;;;;24.17;11.55;;;0.00;99.90;;;;;;5052686;28;20040;-44
2022/12/13 12:31:18;;;;;;;25.60;13.82;;;-0.10;99.90;;;;;;5052310;28;20050;-44
2022/12/13 12:34:12;;;;;;;22.50;11.45;;;-0.10;99.90;;;;;;5053233;28;20036;-43
2022/12/13 12:37:15;;;;;;;22.83;11.77;;;-0.30;99.90;;;;;;5052349;28;20053;-45
2022/12/13 12:40:05;;;;;;;24.20;11.63;;;-0.30;99.90;;;;;;5050447;28;20490;-45
2022/12/13 12:42:51;;;;;;;28.33;14.00;;;-0.20;99.90;;;;;;5051625;28;20680;-44
2022/12/13 12:45:31;;;;;;;25.20;12.10;;;-0.20;99.90;;;;;;5051516;28;20108;-44